Time;durP1;ratioP1;P1;durP2;ratioP2;P2;SDS_P1;SDS_P2;PMS_P1;PMS_P2;Temp;Humidity;BMP_temperature;BMP_pressure;BME280_temperature;BME280_humidity;BME280_pressure;Samples;Min_cycle;Max_cycle;Signal;HPM_P1;HPM_P2
2022/01/08 00:01:49;;;;;;;;;;;;;;;-0.53;100.00;101061.56;4965068;28;19941;-73
2022/01/08 00:04:14;;;;;;;;;;;;;;;-0.59;100.00;101055.28;4963049;28;20000;-73
2022/01/08 00:06:40;;;;;;;;;;;;;;;-0.60;100.00;101055.19;4963310;28;19926;-73
2022/01/08 00:09:05;;;;;;;;;;;;;;;-0.63;100.00;101062.50;4960929;28;19929;-73
2022/01/08 00:11:30;;;;;;;;;;;;;;;-0.66;100.00;101060.63;4984828;28;19922;-73
2022/01/08 00:13:56;;;;;;;;;;;;;;;-0.66;100.00;101064.81;4962622;28;20328;-73
2022/01/08 00:16:21;;;;;;;;;;;;;;;-0.69;100.00;101062.91;4957099;28;20467;-72
2022/01/08 00:18:46;;;;;;;;;;;;;;;-0.70;100.00;101063.69;4967335;28;19937;-72
2022/01/08 00:21:12;;;;;;;;;;;;;;;-0.72;100.00;101085.44;4965412;28;19922;-72
2022/01/08 00:23:37;;;;;;;;;;;;;;;-0.73;100.00;101070.13;4963677;28;19927;-72
2022/01/08 00:26:04;;;;;;;;;;;;;;;-0.71;100.00;101072.03;4978747;28;19927;-72
2022/01/08 00:28:30;;;;;;;;;;;;;;;-0.69;100.00;101075.53;4959764;28;20452;-72
2022/01/08 00:30:55;;;;;;;;;;;;;;;-0.74;100.00;101070.91;4959556;28;20028;-72
2022/01/08 00:33:20;;;;;;;;;;;;;;;-0.75;100.00;101077.59;4963458;28;19923;-73
2022/01/08 00:35:46;;;;;;;;;;;;;;;-0.75;100.00;101085.19;4960183;28;19981;-72
2022/01/08 00:38:11;;;;;;;;;;;;;;;-0.73;100.00;101083.63;4963065;28;20009;-72
2022/01/08 00:40:37;;;;;;;;;;;;;;;-0.72;100.00;101082.03;4962810;28;19923;-73
2022/01/08 00:43:02;;;;;;;;;;;;;;;-0.66;100.00;101083.38;4977331;28;19973;-72
2022/01/08 00:45:28;;;;;;;;;;;;;;;-0.67;100.00;101084.09;4965249;28;19922;-72
2022/01/08 00:47:53;;;;;;;;;;;;;;;-0.68;100.00;101091.56;4965026;28;20446;-72
2022/01/08 00:50:18;;;;;;;;;;;;;;;-0.72;100.00;101097.19;4961473;28;19922;-73
2022/01/08 00:52:44;;;;;;;;;;;;;;;-0.75;100.00;101100.31;4960537;28;19925;-72
2022/01/08 00:55:10;;;;;;;;;;;;;;;-0.75;100.00;101109.56;4959847;28;19926;-73
2022/01/08 00:57:35;;;;;;;;;;;;;;;-0.77;100.00;101117.00;4956286;28;19926;-73
2022/01/08 01:00:01;;;;;;;;;;;;;;;-0.71;100.00;101111.56;4958179;28;20299;-72
2022/01/08 01:02:26;;;;;;;;;;;;;;;-0.66;100.00;101112.78;4961031;28;19957;-72
2022/01/08 01:04:51;;;;;;;;;;;;;;;-0.60;100.00;101111.63;4955427;28;19919;-72
2022/01/08 01:07:17;;;;;;;;;;;;;;;-0.53;100.00;101112.09;4959892;28;20433;-72
2022/01/08 01:09:42;;;;;;;;;;;;;;;-0.52;100.00;101104.63;4975482;28;19929;-72
2022/01/08 01:12:08;;;;;;;;;;;;;;;-0.52;100.00;101104.63;4966606;28;20382;-72
2022/01/08 01:14:33;;;;;;;;;;;;;;;-0.56;100.00;101095.03;4960726;28;19922;-72
2022/01/08 01:16:58;;;;;;;;;;;;;;;-0.62;100.00;101097.97;4966221;28;19925;-73
2022/01/08 01:19:23;;;;;;;;;;;;;;;-0.63;100.00;101097.84;4959602;28;19961;-72
2022/01/08 01:21:49;;;;;;;;;;;;;;;-0.68;100.00;101097.50;4959061;28;20486;-72
2022/01/08 01:24:19;;;;;;;;;;;;;;;-0.73;100.00;101092.84;4959812;28;19925;-73
2022/01/08 01:43:37;;;;;;;;;;;;;;;-0.93;100.00;101109.88;4966200;28;19969;-74
2022/01/08 01:48:46;;;;;;;;;;;;;;;-1.02;100.00;101119.28;4965174;28;20330;-74
2022/01/08 01:51:21;;;;;;;;;;;;;;;-1.03;100.00;101116.63;4970358;28;19922;-73
2022/01/08 01:53:47;;;;;;;;;;;;;;;-0.99;100.00;101116.09;4967887;28;20006;-73
2022/01/08 01:56:12;;;;;;;;;;;;;;;-1.00;100.00;101117.75;4961788;28;20016;-73
2022/01/08 01:58:37;;;;;;;;;;;;;;;-1.02;100.00;101105.78;4968709;28;19918;-73
2022/01/08 02:01:03;;;;;;;;;;;;;;;-1.02;100.00;101105.78;4962067;28;19922;-73
2022/01/08 02:03:28;;;;;;;;;;;;;;;-1.07;100.00;101105.41;4965661;28;19926;-73
2022/01/08 02:05:53;;;;;;;;;;;;;;;-1.10;100.00;101105.16;4969251;28;20728;-74
2022/01/08 02:08:19;;;;;;;;;;;;;;;-1.15;100.00;101106.47;4963920;28;19934;-73
2022/01/08 02:10:44;;;;;;;;;;;;;;;-1.18;100.00;101102.06;4967895;28;19922;-73
2022/01/08 02:13:09;;;;;;;;;;;;;;;-1.22;100.00;101104.22;4964046;28;19922;-73
2022/01/08 02:15:36;;;;;;;;;;;;;;;-1.24;100.00;101110.78;4964274;28;19981;-73
2022/01/08 02:18:01;;;;;;;;;;;;;;;-1.28;100.00;101108.78;4964888;28;20016;-74
2022/01/08 02:20:26;;;;;;;;;;;;;;;-1.33;100.00;101110.97;4964840;28;20028;-74
2022/01/08 02:22:51;;;;;;;;;;;;;;;-1.36;100.00;101110.69;4982797;28;19926;-73
2022/01/08 02:25:21;;;;;;;;;;;;;;;-1.38;100.00;101108.06;4968628;28;19922;-73
2022/01/08 02:27:47;;;;;;;;;;;;;;;-1.39;100.00;101118.91;4963488;28;20375;-73
2022/01/08 02:30:12;;;;;;;;;;;;;;;-1.39;100.00;101115.50;4964422;28;19918;-73
2022/01/08 02:32:40;;;;;;;;;;;;;;;-1.36;100.00;101110.69;4967757;28;19926;-73
2022/01/08 02:35:06;;;;;;;;;;;;;;;-1.39;100.00;101108.81;4969793;28;19922;-73
2022/01/08 02:37:33;;;;;;;;;;;;;;;-1.37;100.00;101113.97;4963289;28;19922;-72
2022/01/08 02:40:00;;;;;;;;;;;;;;;-1.32;100.00;101117.75;4967017;28;19932;-72
2022/01/08 02:42:35;;;;;;;;;;;;;;;-1.21;100.00;101121.13;4966305;28;19922;-72
2022/01/08 02:45:01;;;;;;;;;;;;;;;-1.20;100.00;101116.19;4959993;28;19950;-72
2022/01/08 02:47:26;;;;;;;;;;;;;;;-1.16;100.00;101127.41;4961684;28;19931;-72
2022/01/08 02:49:52;;;;;;;;;;;;;;;-1.15;100.00;101129.19;4958204;28;19977;-73
2022/01/08 02:52:17;;;;;;;;;;;;;;;-1.14;100.00;101128.41;4960649;28;19973;-72
2022/01/08 02:54:46;;;;;;;;;;;;;;;-1.13;100.00;101126.00;4955637;28;19926;-73
2022/01/08 02:57:11;;;;;;;;;;;;;;;-1.15;100.00;101127.53;4961340;28;19922;-72
2022/01/08 02:59:37;;;;;;;;;;;;;;;-1.15;100.00;101126.66;4966796;28;19974;-72
2022/01/08 03:02:02;;;;;;;;;;;;;;;-1.14;100.00;101129.31;4966724;28;19929;-72
2022/01/08 03:04:27;;;;;;;;;;;;;;;-1.12;100.00;101131.94;4965909;28;19922;-72
2022/01/08 03:06:52;;;;;;;;;;;;;;;-1.13;100.00;101126.00;4961632;28;20277;-72
2022/01/08 03:09:18;;;;;;;;;;;;;;;-1.13;100.00;101122.59;4966360;28;19930;-72
2022/01/08 03:11:43;;;;;;;;;;;;;;;-1.16;100.00;101127.41;4969752;28;19922;-72
2022/01/08 03:14:08;;;;;;;;;;;;;;;-1.20;100.00;101126.28;4967900;28;19930;-73
2022/01/08 03:16:34;;;;;;;;;;;;;;;-1.23;100.00;101126.03;4971993;28;19933;-72
2022/01/08 03:19:08;;;;;;;;;;;;;;;-1.24;100.00;101118.34;4961208;28;20017;-72
2022/01/08 03:21:35;;;;;;;;;;;;;;;-1.25;100.00;101116.59;4966589;28;19926;-72
2022/01/08 03:24:01;;;;;;;;;;;;;;;-1.27;100.00;101121.53;4967561;28;19926;-72
2022/01/08 03:26:28;;;;;;;;;;;;;;;-1.28;100.00;101118.88;4973072;28;19937;-72
2022/01/08 03:28:53;;;;;;;;;;;;;;;-1.29;100.00;101122.16;4959743;28;19918;-72
2022/01/08 03:31:19;;;;;;;;;;;;;;;-1.27;100.00;101121.53;4964423;28;20025;-72
2022/01/08 03:33:45;;;;;;;;;;;;;;;-1.25;100.00;101122.53;4976168;28;20044;-72
2022/01/08 03:36:11;;;;;;;;;;;;;;;-1.24;100.00;101124.28;4964418;28;20291;-72
2022/01/08 03:38:37;;;;;;;;;;;;;;;-1.23;100.00;101125.16;4960492;28;19954;-72
2022/01/08 03:41:02;;;;;;;;;;;;;;;-1.25;100.00;101125.03;4966520;28;20025;-72
2022/01/08 03:43:28;;;;;;;;;;;;;;;-1.28;100.00;101131.47;4960399;28;20029;-72
2022/01/08 03:45:53;;;;;;;;;;;;;;;-1.32;100.00;101140.47;4963735;28;19931;-72
2022/01/08 03:48:28;;;;;;;;;;;;;;;-1.40;100.00;101136.44;4965482;28;19935;-72
2022/01/08 03:50:54;;;;;;;;;;;;;;;-1.46;100.00;101141.84;4960218;28;20387;-72
2022/01/08 03:53:19;;;;;;;;;;;;;;;-1.46;100.00;101138.47;4963147;28;19929;-73
2022/01/08 03:55:44;;;;;;;;;;;;;;;-1.44;100.00;101132.78;4960984;28;19922;-72
2022/01/08 03:58:10;;;;;;;;;;;;;;;-1.44;100.00;101125.22;4965793;28;19970;-72
2022/01/08 04:00:35;;;;;;;;;;;;;;;-1.45;100.00;101130.16;4964741;28;19922;-72
2022/01/08 04:03:00;;;;;;;;;;;;;;;-1.44;100.00;101131.91;4965092;28;20447;-72
2022/01/08 04:05:25;;;;;;;;;;;;;;;-1.48;100.00;101132.41;4965970;28;19926;-73
2022/01/08 04:07:51;;;;;;;;;;;;;;;-1.53;100.00;101136.22;4964358;28;20037;-72
2022/01/08 04:10:16;;;;;;;;;;;;;;;-1.55;100.00;101145.31;4967603;28;19966;-72
2022/01/08 04:12:49;;;;;;;;;;;;;;;-1.58;100.00;101143.41;4967466;28;19922;-72
2022/01/08 04:17:49;;;;;;;;;;;;;;;-1.50;100.00;101144.03;4960850;28;20276;-72
2022/01/08 04:20:14;;;;;;;;;;;;;;;-1.49;100.00;101143.28;4961103;28;19925;-72
2022/01/08 04:22:40;;;;;;;;;;;;;;;-1.50;100.00;101142.41;4962549;28;20000;-72
2022/01/08 04:25:05;;;;;;;;;;;;;;;-1.48;100.00;101145.03;4964760;28;20376;-72
2022/01/08 04:27:30;;;;;;;;;;;;;;;-1.50;100.00;101149.97;4967375;28;19934;-72
2022/01/08 04:29:56;;;;;;;;;;;;;;;-1.49;100.00;101163.44;4964170;28;20013;-72
2022/01/08 04:32:21;;;;;;;;;;;;;;;-1.48;100.00;101161.03;4961927;28;20439;-72
2022/01/08 04:34:46;;;;;;;;;;;;;;;-1.40;100.00;101161.66;4959323;28;19930;-73
2022/01/08 04:37:11;;;;;;;;;;;;;;;-1.42;100.00;101166.59;4967784;28;19926;-73
2022/01/08 04:39:37;;;;;;;;;;;;;;;-1.43;100.00;101158.91;4973264;28;20303;-73
2022/01/08 04:42:03;;;;;;;;;;;;;;;-1.41;100.00;101162.41;4961544;28;19918;-75
2022/01/08 04:44:28;;;;;;;;;;;;;;;-1.43;100.00;101172.38;4966268;28;19973;-72
2022/01/08 04:46:53;;;;;;;;;;;;;;;-1.43;100.00;101161.41;4961701;28;19930;-70
2022/01/08 04:49:19;;;;;;;;;;;;;;;-1.46;100.00;101162.03;4965174;28;20307;-72
2022/01/08 04:51:44;;;;;;;;;;;;;;;-1.56;100.00;101168.75;4963321;28;20551;-72
2022/01/08 04:54:09;;;;;;;;;;;;;;;-1.60;100.00;101174.31;4960362;28;19965;-72
2022/01/08 04:56:34;;;;;;;;;;;;;;;-1.65;100.00;101174.81;4957735;28;19933;-72
2022/01/08 04:59:00;;;;;;;;;;;;;;;-1.67;100.00;101183.88;4966969;28;19918;-72
2022/01/08 05:01:25;;;;;;;;;;;;;;;-1.67;100.00;101172.94;4960467;28;19972;-73
2022/01/08 05:03:51;;;;;;;;;;;;;;;-1.69;100.00;101180.38;4964511;28;19930;-73
2022/01/08 05:06:16;;;;;;;;;;;;;;;-1.65;100.00;101184.88;4963723;28;20025;-73
2022/01/08 05:08:42;;;;;;;;;;;;;;;-1.64;100.00;101181.63;4963163;28;20001;-72
2022/01/08 05:11:07;;;;;;;;;;;;;;;-1.66;100.00;101179.72;4962899;28;19925;-72
2022/01/08 05:13:32;;;;;;;;;;;;;;;-1.64;100.00;101175.69;4957586;28;19922;-73
2022/01/08 05:15:58;;;;;;;;;;;;;;;-1.62;100.00;101181.75;4961402;28;19996;-72
2022/01/08 05:18:24;;;;;;;;;;;;;;;-1.62;100.00;101185.16;4960824;28;19933;-72
2022/01/08 05:21:04;;;;;;;;;;;;;;;-1.63;100.00;101180.88;4960263;28;20335;-72
2022/01/08 05:23:30;;;;;;;;;;;;;;;-1.59;100.00;101184.50;4964737;28;19926;-73
2022/01/08 05:25:55;;;;;;;;;;;;;;;-1.54;100.00;101182.38;4967914;28;20391;-72
2022/01/08 05:28:20;;;;;;;;;;;;;;;-1.50;100.00;101182.75;4958956;28;19926;-72
2022/01/08 05:30:46;;;;;;;;;;;;;;;-1.54;100.00;101179.84;4981585;28;19922;-72
2022/01/08 05:33:11;;;;;;;;;;;;;;;-1.53;100.00;101174.91;4962337;28;19930;-73
2022/01/08 05:35:36;;;;;;;;;;;;;;;-1.45;100.00;101184.00;4959135;28;19929;-72
2022/01/08 05:38:01;;;;;;;;;;;;;;;-1.45;100.00;101184.00;4962274;28;19926;-72
2022/01/08 05:40:27;;;;;;;;;;;;;;;-1.42;100.00;101183.34;4961196;28;19930;-72
2022/01/08 05:42:52;;;;;;;;;;;;;;;-1.33;100.00;101180.69;4961689;28;19984;-72
2022/01/08 05:45:18;;;;;;;;;;;;;;;-1.21;100.00;101182.56;4975200;28;19929;-72
2022/01/08 05:47:43;;;;;;;;;;;;;;;-1.13;100.00;101186.56;4962949;28;19922;-72
2022/01/08 05:50:09;;;;;;;;;;;;;;;-1.12;100.00;101190.84;4962755;28;19934;-76
2022/01/08 05:52:34;;;;;;;;;;;;;;;-1.17;100.00;101193.78;4962788;28;20391;-72
2022/01/08 05:54:59;;;;;;;;;;;;;;;-1.24;100.00;101194.94;4958071;28;19922;-73
2022/01/08 05:57:24;;;;;;;;;;;;;;;-1.27;100.00;101202.25;4958682;28;19918;-72
2022/01/08 05:59:50;;;;;;;;;;;;;;;-1.19;100.00;101206.28;4958751;28;19922;-72
2022/01/08 06:02:15;;;;;;;;;;;;;;;-1.18;100.00;101199.59;4959984;28;19929;-72
2022/01/08 06:04:40;;;;;;;;;;;;;;;-1.17;100.00;101204.75;4959667;28;19929;-72
2022/01/08 06:07:06;;;;;;;;;;;;;;;-1.21;100.00;101211.97;4959534;28;19926;-72
2022/01/08 06:09:31;;;;;;;;;;;;;;;-1.21;100.00;101207.81;4963846;28;19965;-71
2022/01/08 06:11:56;;;;;;;;;;;;;;;-1.18;100.00;101217.25;4964492;28;19929;-72
2022/01/08 06:14:22;;;;;;;;;;;;;;;-1.21;100.00;101211.97;4963819;28;19933;-72
2022/01/08 06:16:48;;;;;;;;;;;;;;;-1.22;100.00;101217.75;4957703;28;20004;-72
2022/01/08 06:19:14;;;;;;;;;;;;;;;-1.12;100.00;101228.72;4959395;28;19926;-71
2022/01/08 06:21:39;;;;;;;;;;;;;;;-1.12;100.00;101226.19;4961503;28;19922;-72
2022/01/08 06:24:05;;;;;;;;;;;;;;;-1.09;100.00;101216.34;4957821;28;20020;-72
2022/01/08 06:26:30;;;;;;;;;;;;;;;-1.06;100.00;101218.22;4962218;28;20640;-72
2022/01/08 06:28:56;;;;;;;;;;;;;;;-1.07;100.00;101216.47;4963985;28;19918;-72
2022/01/08 06:31:22;;;;;;;;;;;;;;;-1.06;100.00;101224.91;4966886;28;20008;-72
2022/01/08 06:33:48;;;;;;;;;;;;;;;-1.04;100.00;101225.91;4984035;28;19918;-72
2022/01/08 06:36:13;;;;;;;;;;;;;;;-1.03;100.00;101217.56;4962124;28;19977;-72
2022/01/08 06:38:39;;;;;;;;;;;;;;;-1.04;100.00;101214.16;4968451;28;19923;-72
2022/01/08 06:41:04;;;;;;;;;;;;;;;-1.02;100.00;101215.19;4960858;28;19922;-73
2022/01/08 06:43:29;;;;;;;;;;;;;;;-1.04;100.00;101213.28;4966524;28;19926;-72
2022/01/08 06:45:55;;;;;;;;;;;;;;;-1.01;100.00;101204.34;4964466;28;19929;-72
2022/01/08 06:48:20;;;;;;;;;;;;;;;-1.02;100.00;101199.19;4964170;28;19945;-72
2022/01/08 06:50:45;;;;;;;;;;;;;;;-1.03;100.00;101199.91;4963866;28;19918;-72
2022/01/08 06:53:10;;;;;;;;;;;;;;;-1.06;100.00;101200.56;4963301;28;19922;-72
2022/01/08 06:55:36;;;;;;;;;;;;;;;-1.05;100.00;101202.31;4967234;28;19926;-72
2022/01/08 06:58:01;;;;;;;;;;;;;;;-1.10;100.00;101196.03;4960642;28;19971;-72
2022/01/08 07:00:27;;;;;;;;;;;;;;;-1.13;100.00;101200.84;4962330;28;19930;-72
2022/01/08 07:02:52;;;;;;;;;;;;;;;-1.19;100.00;101201.22;4968355;28;20286;-72
2022/01/08 07:05:17;;;;;;;;;;;;;;;-1.20;100.00;101204.50;4960304;28;19973;-72
2022/01/08 07:07:43;;;;;;;;;;;;;;;-1.24;100.00;101205.00;4964636;28;19926;-72
2022/01/08 07:10:08;;;;;;;;;;;;;;;-1.26;100.00;101206.53;4961746;28;19926;-72
2022/01/08 07:12:33;;;;;;;;;;;;;;;-1.21;100.00;101209.44;4964074;28;20364;-72
2022/01/08 07:14:59;;;;;;;;;;;;;;;-1.23;100.00;101205.91;4964490;28;20127;-72
2022/01/08 07:17:24;;;;;;;;;;;;;;;-1.25;100.00;101195.69;4964896;28;20387;-72
2022/01/08 07:19:49;;;;;;;;;;;;;;;-1.22;100.00;101198.44;4965346;28;19957;-72
2022/01/08 07:22:15;;;;;;;;;;;;;;;-1.27;100.00;101194.69;4962236;28;20407;-73
2022/01/08 07:24:40;;;;;;;;;;;;;;;-1.29;100.00;101195.31;4961193;28;19919;-73
2022/01/08 07:27:05;;;;;;;;;;;;;;;-1.28;100.00;101192.03;4962968;28;21102;-73
2022/01/08 07:29:31;;;;;;;;;;;;;;;-1.30;100.00;101204.53;4962107;28;19926;-72
2022/01/08 07:31:56;;;;;;;;;;;;;;;-1.27;100.00;101207.31;4961717;28;19930;-72
2022/01/08 07:34:21;;;;;;;;;;;;;;;-1.21;100.00;101197.72;4959781;28;20391;-73
2022/01/08 07:36:46;;;;;;;;;;;;;;;-1.23;100.00;101189.13;4960539;28;19926;-73
2022/01/08 07:39:12;;;;;;;;;;;;;;;-1.18;100.00;101194.53;4966886;28;19929;-73
2022/01/08 07:41:37;;;;;;;;;;;;;;;-1.16;100.00;101187.97;4963173;28;19934;-72
2022/01/08 07:44:02;;;;;;;;;;;;;;;-1.11;100.00;101195.13;4960510;28;19984;-73
2022/01/08 07:46:28;;;;;;;;;;;;;;;-1.04;100.00;101200.66;4964614;28;19929;-73
2022/01/08 07:48:53;;;;;;;;;;;;;;;-1.01;100.00;101194.25;4959299;28;19929;-72
2022/01/08 07:51:18;;;;;;;;;;;;;;;-0.85;100.00;101187.13;4967304;28;19969;-73
2022/01/08 07:53:44;;;;;;;;;;;;;;;-0.88;100.00;101188.50;4965919;28;19926;-73
2022/01/08 07:56:09;;;;;;;;;;;;;;;-0.83;100.00;101187.22;4963365;28;19922;-72
2022/01/08 07:58:34;;;;;;;;;;;;;;;-0.67;100.00;101179.19;4962155;28;20088;-73
2022/01/08 08:00:59;;;;;;;;;;;;;;;-0.67;100.00;101175.03;4963345;28;19933;-72
2022/01/08 08:03:25;;;;;;;;;;;;;;;-0.68;100.00;101173.25;4962777;28;19925;-71
2022/01/08 08:05:50;;;;;;;;;;;;;;;-0.68;100.00;101177.44;4964779;28;20483;-70
2022/01/08 08:08:17;;;;;;;;;;;;;;;-0.61;100.00;101185.63;4960787;28;19922;-71
2022/01/08 08:10:43;;;;;;;;;;;;;;;-0.52;100.00;101172.81;4966447;28;19992;-72
2022/01/08 08:13:08;;;;;;;;;;;;;;;-0.45;100.00;101176.69;4965331;28;19926;-70
2022/01/08 08:15:33;;;;;;;;;;;;;;;-0.49;100.00;101174.69;4962785;28;19930;-70
2022/01/08 08:17:58;;;;;;;;;;;;;;;-0.41;100.00;101168.59;4961836;28;19933;-70
2022/01/08 08:20:24;;;;;;;;;;;;;;;-0.47;100.00;101166.47;4960826;28;19918;-73
2022/01/08 08:22:49;;;;;;;;;;;;;;;-0.45;100.00;101162.41;4960497;28;19933;-72
2022/01/08 08:25:15;;;;;;;;;;;;;;;-0.36;100.00;101160.59;4954732;28;19922;-73
2022/01/08 08:27:40;;;;;;;;;;;;;;;-0.36;100.00;101158.06;4974867;28;20298;-72
2022/01/08 08:30:06;;;;;;;;;;;;;;;-0.37;100.00;101156.28;4967140;28;19929;-73
2022/01/08 08:32:31;;;;;;;;;;;;;;;-0.27;100.00;101150.28;4982304;28;20378;-75
2022/01/08 08:34:57;;;;;;;;;;;;;;;-0.29;100.00;101149.31;4965553;28;20040;-73
2022/01/08 08:37:22;;;;;;;;;;;;;;;-0.28;100.00;101156.13;4963493;28;20683;-72
2022/01/08 08:39:47;;;;;;;;;;;;;;;-0.29;100.00;101151.84;4960314;28;19934;-73
2022/01/08 08:42:13;;;;;;;;;;;;;;;-0.18;100.00;101148.47;4961079;28;19942;-73
2022/01/08 08:44:38;;;;;;;;;;;;;;;-0.21;100.00;101140.66;4956691;28;20008;-72
2022/01/08 08:47:04;;;;;;;;;;;;;;;-0.14;100.00;101142.00;4962735;28;19970;-72
2022/01/08 08:49:29;;;;;;;;;;;;;;;-0.11;100.00;101145.63;4966096;28;19922;-73
2022/01/08 08:51:55;;;;;;;;;;;;;;;-0.14;100.00;101136.94;4961691;28;19941;-72
2022/01/08 08:54:20;;;;;;;;;;;;;;;-0.06;100.00;101134.22;4965725;28;19918;-72
2022/01/08 08:56:45;;;;;;;;;;;;;;;0.10;100.00;101135.34;4967295;28;19918;-72
2022/01/08 08:59:11;;;;;;;;;;;;;;;0.08;100.00;101144.47;4965295;28;19986;-72
2022/01/08 09:01:36;;;;;;;;;;;;;;;0.21;100.00;101142.09;4965176;28;19922;-73
2022/01/08 09:04:02;;;;;;;;;;;;;;;0.17;100.00;101135.91;4966291;28;19918;-72
2022/01/08 09:06:27;;;;;;;;;;;;;;;0.16;100.00;101143.38;4964236;28;19929;-72
2022/01/08 09:08:53;;;;;;;;;;;;;;;0.36;100.00;101142.31;4962321;28;19964;-73
2022/01/08 09:11:19;;;;;;;;;;;;;;;0.37;100.00;101142.44;4963309;28;19922;-73
2022/01/08 09:13:44;;;;;;;;;;;;;;;0.41;100.00;101144.41;4962949;28;19918;-71
2022/01/08 09:16:09;;;;;;;;;;;;;;;0.54;100.00;101147.06;4960682;28;20322;-72
2022/01/08 09:18:35;;;;;;;;;;;;;;;0.60;100.00;101150.81;4963164;28;19926;-73
2022/01/08 09:21:01;;;;;;;;;;;;;;;0.62;100.00;101136.63;4964053;28;20455;-72
2022/01/08 09:23:26;;;;;;;;;;;;;;;0.61;100.00;101128.16;4958886;28;20060;-72
2022/01/08 09:25:52;;;;;;;;;;;;;;;0.66;100.00;101128.47;4964049;28;19918;-73
2022/01/08 09:28:17;;;;;;;;;;;;;;;0.69;100.00;101127.06;4964084;28;20410;-72
2022/01/08 09:30:44;;;;;;;;;;;;;;;0.72;100.00;101123.84;4961061;28;19918;-72
2022/01/08 09:33:11;;;;;;;;;;;;;;;0.79;100.00;101113.41;4948537;28;19922;-72
2022/01/08 09:35:36;;;;;;;;;;;;;;;0.77;100.00;101114.94;4965546;28;19918;-73
2022/01/08 09:38:02;;;;;;;;;;;;;;;0.79;100.00;101108.34;4959400;28;20422;-76
2022/01/08 09:40:28;;;;;;;;;;;;;;;0.80;100.00;101105.91;4964828;28;19930;-73
2022/01/08 09:42:54;;;;;;;;;;;;;;;0.87;100.00;101114.81;4959155;28;19927;-74
2022/01/08 09:45:19;;;;;;;;;;;;;;;0.95;100.00;101103.56;4964164;28;19922;-72
2022/01/08 09:47:44;;;;;;;;;;;;;;;1.01;100.00;101104.00;4963674;28;19985;-73
2022/01/08 09:50:10;;;;;;;;;;;;;;;1.07;100.00;101096.81;4962625;28;20403;-72
2022/01/08 09:52:36;;;;;;;;;;;;;;;1.04;100.00;101096.63;4963396;28;19926;-73
2022/01/08 09:55:01;;;;;;;;;;;;;;;1.14;100.00;101087.13;4961731;28;19922;-72
2022/01/08 09:57:26;;;;;;;;;;;;;;;1.08;100.00;101078.31;4961919;28;19925;-72
2022/01/08 09:59:52;;;;;;;;;;;;;;;1.11;100.00;101071.72;4963029;28;19928;-73
2022/01/08 10:02:21;;;;;;;;;;;;;;;1.13;100.00;101065.09;4964483;28;19923;-73
2022/01/08 10:04:47;;;;;;;;;;;;;;;1.13;100.00;101062.56;4978821;28;20331;-73
2022/01/08 10:07:22;;;;;;;;;;;;;;;1.25;100.00;101055.81;4962940;28;19977;-73
2022/01/08 10:10:00;;;;;;;;;;;;;;;1.34;100.00;101047.19;4978894;28;21550;-73
2022/01/08 10:12:35;;;;;;;;;;;;;;;1.37;100.00;101032.97;4978545;28;19941;-72
2022/01/08 10:17:45;;;;;;;;;;;;;;;1.39;100.00;101011.13;4966110;28;19949;-77
2022/01/08 10:20:10;;;;;;;;;;;;;;;1.45;100.00;101004.81;4981402;28;19926;-76
2022/01/08 10:22:36;;;;;;;;;;;;;;;1.71;100.00;100993.88;4965953;28;20375;-78
2022/01/08 10:25:19;;;;;;;;;;;;;;;1.73;100.00;100999.91;4969493;28;19919;-77
2022/01/08 10:27:44;;;;;;;;;;;;;;;1.69;100.00;100979.34;4970917;28;19929;-79
2022/01/08 10:30:22;;;;;;;;;;;;;;;1.74;100.00;100986.47;4967014;28;19930;-73
2022/01/08 10:33:01;;;;;;;;;;;;;;;1.80;100.00;100983.44;4960168;28;19925;-73
2022/01/08 10:35:44;;;;;;;;;;;;;;;1.79;100.00;100974.97;4959412;28;19926;-73
2022/01/08 10:38:10;;;;;;;;;;;;;;;1.78;100.00;100974.88;4985143;28;20439;-73
2022/01/08 10:40:35;;;;;;;;;;;;;;;1.78;100.00;100967.28;4968642;28;20013;-74
2022/01/08 10:43:00;;;;;;;;;;;;;;;1.88;100.00;100956.91;4968234;28;19918;-73
2022/01/08 10:45:32;;;;;;;;;;;;;;;1.83;100.00;100945.63;4969513;28;19977;-73
2022/01/08 10:48:04;;;;;;;;;;;;;;;1.87;100.00;100953.50;4968039;28;19922;-74
2022/01/08 10:50:29;;;;;;;;;;;;;;;1.88;100.00;100936.63;4965239;28;19915;-73
2022/01/08 10:52:54;;;;;;;;;;;;;;;1.94;100.00;100931.94;4963776;28;20061;-73
2022/01/08 10:55:32;;;;;;;;;;;;;;;1.99;100.00;100917.91;4962363;28;19930;-74
2022/01/08 10:57:58;;;;;;;;;;;;;;;1.94;100.00;100909.13;4979178;28;19988;-73
2022/01/08 11:00:31;;;;;;;;;;;;;;;1.94;100.00;100908.25;4966398;28;20384;-73
2022/01/08 11:02:56;;;;;;;;;;;;;;;2.07;100.00;100903.19;4967135;28;19957;-73
2022/01/08 11:05:21;;;;;;;;;;;;;;;2.14;100.00;100901.13;4968141;28;19957;-73
2022/01/08 11:07:47;;;;;;;;;;;;;;;2.14;100.00;100898.59;4967840;28;20362;-73
2022/01/08 11:10:19;;;;;;;;;;;;;;;2.16;100.00;100883.47;4969837;28;20004;-73
2022/01/08 11:12:46;;;;;;;;;;;;;;;2.29;100.00;100896.09;4961387;28;19915;-73
2022/01/08 11:17:45;;;;;;;;;;;;;;;2.26;100.00;100869.69;4966619;28;19933;-74
2022/01/08 11:20:11;;;;;;;;;;;;;;;2.33;100.00;100856.59;4963838;28;19915;-74
2022/01/08 11:22:38;;;;;;;;;;;;;;;2.30;100.00;100852.19;4966019;28;19977;-74
2022/01/08 11:25:07;;;;;;;;;;;;;;;2.45;100.00;100852.25;4967444;28;19922;-73
2022/01/08 11:27:47;;;;;;;;;;;;;;;2.46;100.00;100843.84;4962863;28;19926;-73
2022/01/08 11:30:15;;;;;;;;;;;;;;;2.52;100.00;100844.22;4978648;28;20608;-74
2022/01/08 11:32:41;;;;;;;;;;;;;;;2.61;100.00;100828.69;4965697;28;19922;-74
2022/01/08 11:35:08;;;;;;;;;;;;;;;2.75;100.00;100832.03;4964253;28;20304;-73
2022/01/08 11:37:34;;;;;;;;;;;;;;;3.06;100.00;100819.44;4969203;28;19925;-74
2022/01/08 11:40:03;;;;;;;;;;;;;;;3.25;97.85;100818.81;4964374;28;20180;-74
2022/01/08 11:42:28;;;;;;;;;;;;;;;3.26;98.25;100808.72;4984117;28;19926;-73
2022/01/08 11:44:55;;;;;;;;;;;;;;;3.17;98.83;100798.06;4968018;28;20335;-73
2022/01/08 11:47:21;;;;;;;;;;;;;;;3.20;97.84;100790.59;4971616;28;19918;-73
2022/01/08 11:49:48;;;;;;;;;;;;;;;3.07;98.28;100780.53;4966354;28;19918;-73
2022/01/08 11:52:23;;;;;;;;;;;;;;;3.04;98.61;100778.69;4964975;28;19929;-73
2022/01/08 11:54:49;;;;;;;;;;;;;;;3.12;97.53;100768.97;4968237;28;19918;-73
2022/01/08 11:57:18;;;;;;;;;;;;;;;3.20;97.18;100758.44;4967556;28;20418;-73
2022/01/08 11:59:44;;;;;;;;;;;;;;;3.10;98.22;100747.69;4963967;28;19970;-73
2022/01/08 12:02:10;;;;;;;;;;;;;;;3.12;97.62;100744.44;4961954;28;19926;-74
2022/01/08 12:04:36;;;;;;;;;;;;;;;3.13;97.05;100745.31;4964308;28;20342;-75
2022/01/08 12:07:20;;;;;;;;;;;;;;;3.15;96.64;100736.97;4964038;28;19942;-76
2022/01/08 12:09:46;;;;;;;;;;;;;;;3.09;96.88;100731.53;4966751;28;20402;-75
2022/01/08 12:12:11;;;;;;;;;;;;;;;3.04;96.78;100720.28;4962831;28;19949;-75
2022/01/08 12:14:37;;;;;;;;;;;;;;;3.04;96.71;100720.28;4962219;28;20021;-75
2022/01/08 12:17:12;;;;;;;;;;;;;;;3.07;96.64;100712.81;4965332;28;19926;-76
2022/01/08 12:19:39;;;;;;;;;;;;;;;3.20;95.87;100706.72;4966917;28;20445;-74
2022/01/08 12:22:16;;;;;;;;;;;;;;;3.14;95.65;100692.03;4964507;28;20276;-76
2022/01/08 12:24:42;;;;;;;;;;;;;;;3.07;96.02;100678.91;4965466;28;19951;-74
2022/01/08 12:27:27;;;;;;;;;;;;;;;3.02;96.08;100660.88;4962408;28;20280;-75
2022/01/08 12:29:52;;;;;;;;;;;;;;;3.17;95.30;100655.78;4971510;28;19918;-76
2022/01/08 12:32:21;;;;;;;;;;;;;;;3.01;95.57;100641.34;4960543;28;20346;-76
2022/01/08 12:34:50;;;;;;;;;;;;;;;3.15;96.07;100632.78;4980089;28;19918;-76
2022/01/08 12:37:17;;;;;;;;;;;;;;;3.17;95.06;100618.53;4962172;28;19987;-75
2022/01/08 12:39:42;;;;;;;;;;;;;;;3.12;95.59;100606.38;4978007;28;19918;-75
2022/01/08 12:42:20;;;;;;;;;;;;;;;3.30;94.72;100602.25;4966534;28;19918;-73
2022/01/08 12:44:57;;;;;;;;;;;;;;;3.21;94.49;100589.06;4961588;28;20367;-73
2022/01/08 12:47:41;;;;;;;;;;;;;;;3.29;94.67;100575.09;4969752;28;21057;-73
2022/01/08 12:50:26;;;;;;;;;;;;;;;3.52;93.42;100573.78;4961772;28;19926;-73
2022/01/08 12:53:07;;;;;;;;;;;;;;;3.48;93.34;100554.06;4982029;28;19948;-74
2022/01/08 12:55:35;;;;;;;;;;;;;;;3.63;91.87;100546.31;4963663;28;19926;-73